Time;durP1;ratioP1;P1;durP2;ratioP2;P2;SDS_P1;SDS_P2;PMS_P1;PMS_P2;Temp;Humidity;BMP_temperature;BMP_pressure;BME280_temperature;BME280_humidity;BME280_pressure;Samples;Min_cycle;Max_cycle;Signal;HPM_P1;HPM_P2
2021/12/27 00:00:18;;;;;;;;;0.00;0.00;;;;;10.99;77.76;99673.94;5063081;28;45439;-84
2021/12/27 00:02:45;;;;;;;;;0.00;0.00;;;;;11.13;77.64;99693.78;5064169;28;45278;-87
2021/12/27 00:05:11;;;;;;;;;3.00;0.00;;;;;10.90;77.70;99653.19;5064152;28;46449;-85
2021/12/27 00:07:36;;;;;;;;;0.00;0.00;;;;;11.47;77.60;99729.03;5063794;28;45356;-84
2021/12/27 00:10:04;;;;;;;;;0.00;0.00;;;;;11.32;78.03;99709.22;5062434;28;45277;-85
2021/12/27 00:12:29;;;;;;;;;0.00;0.00;;;;;11.07;77.85;99660.84;5064258;28;45553;-85
2021/12/27 00:14:54;;;;;;;;;0.00;0.00;;;;;11.49;77.69;99709.88;5062171;28;46205;-84
2021/12/27 00:17:20;;;;;;;;;0.00;0.00;;;;;11.21;78.10;99673.72;5062464;28;45292;-84
2021/12/27 00:19:47;;;;;;;;;0.00;0.00;;;;;11.63;77.80;99730.59;5063917;28;45260;-85
2021/12/27 00:22:12;;;;;;;;;1.00;1.00;;;;;11.66;77.57;99733.16;5079613;28;45434;-84
2021/12/27 00:24:37;;;;;;;;;0.75;0.00;;;;;11.12;78.23;99643.44;5063700;28;45937;-84
2021/12/27 00:27:03;;;;;;;;;0.00;0.00;;;;;10.86;77.67;99595.13;5062546;28;45469;-85
2021/12/27 00:29:28;;;;;;;;;0.00;0.00;;;;;11.38;77.46;99683.97;5063769;28;45335;-84
2021/12/27 00:31:54;;;;;;;;;1.00;0.00;;;;;11.08;77.06;99618.31;5059651;28;45501;-84
2021/12/27 00:34:19;;;;;;;;;0.00;0.00;;;;;11.10;77.57;99626.97;5042663;28;46640;-84
2021/12/27 00:36:45;;;;;;;;;0.00;0.00;;;;;11.33;77.42;99656.25;5047096;28;45402;-84
2021/12/27 00:39:10;;;;;;;;;1.00;0.00;;;;;11.49;77.28;99701.22;5049188;28;45298;-84
2021/12/27 00:41:36;;;;;;;;;0.00;0.00;;;;;11.28;77.43;99667.56;5047651;28;45312;-84
2021/12/27 00:44:02;;;;;;;;;0.00;0.00;;;;;11.48;77.45;99705.56;5047916;28;45428;-83
2021/12/27 00:46:27;;;;;;;;;0.00;0.00;;;;;11.48;77.83;99704.69;5046477;28;45146;-84
2021/12/27 00:48:53;;;;;;;;;0.00;0.00;;;;;11.06;77.75;99651.34;5046400;28;45219;-83
2021/12/27 00:51:18;;;;;;;;;0.00;0.00;;;;;10.92;77.84;99627.16;5051997;28;44732;-83
2021/12/27 00:53:44;;;;;;;;;1.00;0.00;;;;;11.31;77.36;99677.09;5051126;28;45294;-83
2021/12/27 00:56:09;;;;;;;;;1.00;0.00;;;;;11.40;77.48;99694.38;5051092;28;45210;-83
2021/12/27 00:58:34;;;;;;;;;3.00;0.00;;;;;11.01;77.42;99624.47;5050198;28;45195;-82
2021/12/27 01:01:00;;;;;;;;;0.00;0.00;;;;;10.82;77.64;99590.81;5050423;28;45296;-82
2021/12/27 01:03:31;;;;;;;;;0.00;0.00;;;;;11.05;77.33;99625.31;5044077;28;47453;-83
2021/12/27 01:05:57;;;;;;;;;0.00;0.00;;;;;10.82;77.34;99583.00;5044562;28;45280;-83
2021/12/27 01:08:22;;;;;;;;;0.00;0.00;;;;;10.94;77.23;99595.03;5043736;28;45339;-83
2021/12/27 01:13:38;;;;;;;;;0.00;0.00;;;;;11.34;77.13;99657.97;5043275;28;45311;-83
2021/12/27 01:18:34;;;;;;;;;0.00;0.00;;;;;11.52;76.98;99675.13;5044451;28;45372;-84
2021/12/27 01:20:59;;;;;;;;;0.00;0.00;;;;;11.44;76.99;99659.56;5042095;28;45306;-84
2021/12/27 01:23:25;;;;;;;;;0.00;0.00;;;;;10.96;77.02;99584.59;5041661;28;46466;-85
2021/12/27 01:25:50;;;;;;;;;0.00;0.00;;;;;11.46;76.67;99651.75;5042843;28;45220;-85
2021/12/27 01:28:18;;;;;;;;;0.00;0.00;;;;;11.49;76.80;99657.75;5042876;28;45152;-84
2021/12/27 01:30:47;;;;;;;;;0.00;0.00;;;;;11.13;77.15;99605.22;5042983;28;45440;-85
2021/12/27 01:33:13;;;;;;;;;0.00;0.00;;;;;11.25;76.65;99617.25;5057371;28;45263;-84
2021/12/27 01:35:38;;;;;;;;;0.00;0.00;;;;;11.23;76.80;99611.19;5062626;28;45358;-85
2021/12/27 01:38:04;;;;;;;;;0.00;0.00;;;;;11.62;76.73;99674.13;5062942;28;45501;-85
2021/12/27 01:40:30;;;;;;;;;0.00;0.00;;;;;11.62;76.78;99668.91;5063088;28;45631;-84
2021/12/27 01:43:10;;;;;;;;;0.00;0.00;;;;;11.63;76.75;99672.34;5063014;28;45291;-85
2021/12/27 01:45:42;;;;;;;;;0.00;0.00;;;;;11.56;76.61;99644.66;5061625;28;45449;-85
2021/12/27 01:48:09;;;;;;;;;0.00;0.00;;;;;11.53;76.74;99642.97;5062449;28;45498;-85
2021/12/27 01:50:41;;;;;;;;;1.00;0.00;;;;;11.26;76.66;99599.00;5061369;28;45421;-85
2021/12/27 01:53:08;;;;;;;;;0.00;0.00;;;;;11.27;76.49;99605.03;5062590;28;46398;-85
2021/12/27 01:55:34;;;;;;;;;0.00;0.00;;;;;11.35;76.51;99603.22;5062415;28;45391;-86
2021/12/27 01:58:00;;;;;;;;;0.00;0.00;;;;;11.24;76.42;99586.88;5062630;28;45467;-86
2021/12/27 02:00:26;;;;;;;;;0.00;0.00;;;;;11.54;76.44;99636.84;5062789;28;45270;-85
2021/12/27 02:02:52;;;;;;;;;0.00;0.00;;;;;11.19;76.63;99579.13;5062152;28;45568;-84
2021/12/27 02:05:17;;;;;;;;;0.00;0.00;;;;;11.33;76.51;99610.19;5062323;28;45404;-84
2021/12/27 02:07:43;;;;;;;;;0.00;0.00;;;;;11.32;76.22;99591.97;5061013;28;45226;-84
2021/12/27 02:10:11;;;;;;;;;0.00;0.00;;;;;11.73;76.43;99668.75;5062254;28;45454;-84
2021/12/27 02:12:37;;;;;;;;;0.50;0.00;;;;;11.30;76.46;99601.56;5062588;28;45371;-85
2021/12/27 02:15:09;;;;;;;;;0.00;0.00;;;;;11.53;76.46;99643.81;5063481;28;45421;-85
2021/12/27 02:17:39;;;;;;;;;0.00;0.00;;;;;11.34;76.38;99598.03;5063382;28;45305;-86
2021/12/27 02:20:07;;;;;;;;;0.00;0.00;;;;;11.39;76.51;99596.22;5064890;28;45500;-86
2021/12/27 02:22:36;;;;;;;;;0.00;0.00;;;;;11.78;76.37;99659.13;5063665;28;45425;-85
2021/12/27 02:25:06;;;;;;;;;0.00;0.00;;;;;11.50;76.46;99603.91;5063792;28;45281;-87
2021/12/27 02:27:32;;;;;;;;;0.00;0.00;;;;;11.15;76.05;99554.00;5066520;28;45306;-86
2021/12/27 02:29:58;;;;;;;;;0.00;0.00;;;;;11.37;75.98;99579.75;5065150;28;45172;-86
2021/12/27 02:32:23;;;;;;;;;1.00;1.00;;;;;11.44;76.44;99588.34;5053529;28;46451;-86
2021/12/27 02:34:48;;;;;;;;;0.00;0.00;;;;;11.52;76.59;99610.81;5040753;28;45236;-86
2021/12/27 02:37:14;;;;;;;;;0.00;0.00;;;;;11.72;76.64;99640.97;5042325;28;45285;-86
2021/12/27 02:39:39;;;;;;;;;0.00;0.00;;;;;10.98;77.05;99504.72;5040726;28;45287;-86
2021/12/27 02:42:05;;;;;;;;;4.00;0.00;;;;;11.55;77.01;99599.50;5042046;28;45301;-86
2021/12/27 02:44:30;;;;;;;;;0.00;0.00;;;;;11.70;76.67;99636.66;5043039;28;45255;-85
2021/12/27 02:46:56;;;;;;;;;0.00;0.00;;;;;11.30;77.07;99567.69;5042068;28;45219;-85
2021/12/27 02:49:21;;;;;;;;;0.00;0.00;;;;;11.71;77.05;99643.59;5042294;28;45378;-85
2021/12/27 02:51:47;;;;;;;;;0.00;0.00;;;;;11.42;76.65;99593.56;5040830;28;45921;-84
2021/12/27 02:54:12;;;;;;;;;0.00;0.00;;;;;11.26;76.63;99562.53;5041476;28;45286;-84
2021/12/27 02:56:37;;;;;;;;;0.00;0.00;;;;;11.59;76.90;99622.03;5043414;28;45336;-84
2021/12/27 02:59:03;;;;;;;;;0.00;0.00;;;;;11.20;77.02;99553.91;5045485;28;45460;-85
2021/12/27 03:01:30;;;;;;;;;0.00;0.00;;;;;11.38;76.81;99592.75;5044790;28;46145;-85
2021/12/27 03:03:55;;;;;;;;;0.00;0.00;;;;;10.87;76.89;99497.03;5044777;28;45429;-84
2021/12/27 03:06:21;;;;;;;;;0.00;0.00;;;;;10.92;76.70;99507.38;5044987;28;45491;-84
2021/12/27 03:08:48;;;;;;;;;0.00;0.00;;;;;11.46;76.93;99602.22;5043550;28;45500;-84
2021/12/27 03:11:17;;;;;;;;;0.00;0.00;;;;;11.20;76.92;99556.50;5044336;28;45372;-84
2021/12/27 03:13:50;;;;;;;;;0.00;0.00;;;;;11.56;76.59;99605.56;5044679;28;45512;-84
2021/12/27 03:16:18;;;;;;;;;0.00;0.00;;;;;11.38;76.70;99589.28;5044805;28;45249;-84
2021/12/27 03:18:47;;;;;;;;;0.00;0.00;;;;;10.72;76.42;99464.25;5044818;28;45401;-84
2021/12/27 03:21:13;;;;;;;;;0.00;0.00;;;;;11.39;76.70;99583.19;5044307;28;46407;-83
2021/12/27 03:23:40;;;;;;;;;0.00;0.00;;;;;11.21;76.87;99553.88;5044419;28;45274;-83
2021/12/27 03:26:06;;;;;;;;;0.00;0.00;;;;;11.39;76.83;99589.28;5044681;28;45129;-83
2021/12/27 03:28:33;;;;;;;;;0.00;0.00;;;;;11.46;76.63;99590.06;5044854;28;45218;-83
2021/12/27 03:30:58;;;;;;;;;0.00;0.00;;;;;11.56;76.44;99592.53;5042915;28;47207;-82
2021/12/27 03:33:24;;;;;;;;;0.00;0.00;;;;;10.82;76.50;99493.63;5061061;28;45318;-83
2021/12/27 03:35:59;;;;;;;;;0.00;0.00;;;;;11.19;76.43;99536.56;5064721;28;45433;-83
2021/12/27 03:38:27;;;;;;;;;1.00;0.00;;;;;10.84;76.37;99478.88;5063399;28;45416;-84
2021/12/27 03:40:53;;;;;;;;;0.00;0.00;;;;;11.39;76.46;99552.78;5064379;28;46438;-85
2021/12/27 03:43:18;;;;;;;;;0.00;0.00;;;;;11.58;76.38;99583.78;5064686;28;45279;-84
2021/12/27 03:45:44;;;;;;;;;0.00;0.00;;;;;10.91;76.13;99472.69;5064480;28;45269;-84
2021/12/27 03:48:10;;;;;;;;;0.00;0.00;;;;;10.99;76.21;99486.47;5064653;28;45281;-84
2021/12/27 03:50:36;;;;;;;;;0.00;0.00;;;;;11.17;76.63;99512.25;5064291;28;45846;-85
2021/12/27 03:53:02;;;;;;;;;0.00;0.00;;;;;11.20;76.22;99507.00;5064496;28;45286;-84
2021/12/27 03:55:28;;;;;;;;;0.00;0.00;;;;;10.95;76.27;99476.09;5064453;28;45318;-84
2021/12/27 03:57:54;;;;;;;;;0.00;0.00;;;;;11.53;76.35;99562.16;5063183;28;45363;-84
2021/12/27 04:00:43;;;;;;;;;0.00;0.00;;;;;11.56;76.44;99559.50;5064335;28;45492;-84
2021/12/27 04:03:09;;;;;;;;;0.00;0.00;;;;;11.57;76.31;99569.03;5062520;28;45254;-84
2021/12/27 04:05:34;;;;;;;;;0.00;0.00;;;;;11.45;76.06;99558.81;5062797;28;45884;-84
2021/12/27 04:08:02;;;;;;;;;0.00;0.00;;;;;10.92;76.00;99458.78;5063684;28;45177;-84
2021/12/27 04:10:29;;;;;;;;;0.00;0.00;;;;;10.96;76.01;99464.81;5062154;28;46171;-83
2021/12/27 04:12:55;;;;;;;;;0.00;0.00;;;;;11.05;76.04;99485.50;5064035;28;45393;-84
2021/12/27 04:15:22;;;;;;;;;0.00;0.00;;;;;11.35;76.19;99535.47;5064073;28;45427;-84
2021/12/27 04:17:47;;;;;;;;;0.00;0.00;;;;;11.53;76.13;99555.22;5063832;28;45465;-83
2021/12/27 04:20:13;;;;;;;;;0.50;0.00;;;;;11.19;76.44;99492.28;5063759;28;45310;-84
2021/12/27 04:22:38;;;;;;;;;0.00;0.00;;;;;11.55;76.38;99570.84;5063503;28;45222;-84
2021/12/27 04:25:04;;;;;;;;;0.75;0.00;;;;;11.23;76.07;99504.38;5063605;28;45154;-84
2021/12/27 04:27:29;;;;;;;;;0.00;0.00;;;;;11.49;75.84;99532.66;5064036;28;45250;-84
2021/12/27 04:29:55;;;;;;;;;0.00;0.00;;;;;11.55;76.42;99542.16;5063468;28;45511;-84
2021/12/27 04:32:20;;;;;;;;;0.00;0.00;;;;;11.48;76.29;99537.91;5063445;28;45322;-84
2021/12/27 04:34:46;;;;;;;;;0.00;0.00;;;;;11.59;76.02;99549.03;5062507;28;45470;-84
2021/12/27 04:37:11;;;;;;;;;0.00;0.00;;;;;10.94;75.97;99440.53;5063794;28;45241;-84
2021/12/27 04:39:37;;;;;;;;;0.00;0.00;;;;;11.32;76.10;99514.69;5063384;28;45626;-84
2021/12/27 04:42:04;;;;;;;;;0.00;0.00;;;;;11.00;75.98;99451.72;5063736;28;45274;-84
2021/12/27 04:44:30;;;;;;;;;0.00;0.00;;;;;11.52;76.07;99550.03;5063732;28;45383;-83
2021/12/27 04:46:56;;;;;;;;;0.00;0.00;;;;;11.64;76.16;99549.81;5063420;28;45385;-83
2021/12/27 04:49:21;;;;;;;;;0.25;0.25;;;;;11.15;75.96;99468.03;5064617;28;45690;-83
2021/12/27 04:51:46;;;;;;;;;0.00;0.00;;;;;11.33;75.75;99507.72;5062929;28;45427;-83
2021/12/27 04:54:13;;;;;;;;;0.00;0.00;;;;;11.09;75.57;99478.53;5063216;28;45817;-83
2021/12/27 04:56:39;;;;;;;;;0.00;0.00;;;;;11.18;75.57;99498.38;5063500;28;45323;-83
2021/12/27 04:59:04;;;;;;;;;0.00;0.00;;;;;11.68;75.77;99576.72;5063058;28;46288;-83
2021/12/27 05:01:30;;;;;;;;;0.00;0.00;;;;;11.20;75.58;99502.69;5063444;28;45309;-83
2021/12/27 05:03:55;;;;;;;;;0.50;0.00;;;;;10.81;76.00;99434.66;5063076;28;45194;-83
2021/12/27 05:06:21;;;;;;;;;1.00;1.00;;;;;11.57;76.05;99563.84;5063397;28;45274;-83
2021/12/27 05:08:48;;;;;;;;;0.00;0.00;;;;;11.63;75.89;99565.47;5063099;28;45249;-83
2021/12/27 05:11:14;;;;;;;;;0.75;0.00;;;;;11.56;75.84;99569.06;5062532;28;45502;-83
2021/12/27 05:13:39;;;;;;;;;0.75;0.75;;;;;11.20;75.78;99507.88;5063410;28;45379;-83
2021/12/27 05:16:05;;;;;;;;;0.00;0.00;;;;;11.29;76.23;99530.34;5063427;28;45434;-83
2021/12/27 05:18:30;;;;;;;;;0.00;0.00;;;;;10.87;75.64;99466.66;5062672;28;45322;-83
2021/12/27 05:20:56;;;;;;;;;0.00;0.00;;;;;11.15;75.56;99505.34;5062787;28;45349;-83
2021/12/27 05:23:21;;;;;;;;;0.00;0.00;;;;;11.18;76.19;99514.84;5062872;28;45329;-83
2021/12/27 05:25:47;;;;;;;;;0.00;0.00;;;;;11.20;76.15;99507.88;5063369;28;45276;-83
2021/12/27 05:28:13;;;;;;;;;0.00;0.00;;;;;11.08;75.81;99490.69;5062362;28;46457;-83
2021/12/27 05:30:39;;;;;;;;;0.00;0.00;;;;;11.08;75.84;99480.25;5062380;28;45382;-83
2021/12/27 05:33:04;;;;;;;;;0.00;0.00;;;;;10.85;75.65;99450.22;5047988;28;45459;-83
2021/12/27 05:35:30;;;;;;;;;0.00;0.00;;;;;11.49;76.02;99547.47;5042882;28;45400;-83
2021/12/27 05:37:56;;;;;;;;;4.00;0.00;;;;;10.87;75.86;99438.00;5042505;28;45474;-83
2021/12/27 05:40:22;;;;;;;;;0.00;0.00;;;;;11.63;75.72;99561.16;5042407;28;45251;-83
2021/12/27 05:42:50;;;;;;;;;0.00;0.00;;;;;11.19;75.79;99477.53;5040856;28;45474;-84
2021/12/27 05:45:16;;;;;;;;;0.00;0.00;;;;;11.26;75.73;99494.78;5042560;28;45541;-84
2021/12/27 05:47:42;;;;;;;;;0.00;0.00;;;;;11.09;75.67;99461.16;5042013;28;46282;-84
2021/12/27 05:50:09;;;;;;;;;0.75;0.00;;;;;11.54;75.76;99527.38;5041831;28;45359;-83
2021/12/27 05:52:35;;;;;;;;;1.00;0.00;;;;;11.20;75.87;99475.75;5043280;28;45267;-84
2021/12/27 05:55:00;;;;;;;;;1.50;0.00;;;;;10.84;76.02;99401.59;5041953;28;45219;-84
2021/12/27 05:57:26;;;;;;;;;1.00;0.00;;;;;11.33;75.90;99498.16;5042290;28;45243;-83
2021/12/27 05:59:51;;;;;;;;;0.50;0.00;;;;;11.04;76.25;99452.56;5040815;28;45248;-83
2021/12/27 06:02:17;;;;;;;;;0.00;0.00;;;;;10.91;76.15;99420.63;5042872;28;45235;-84
2021/12/27 06:04:42;;;;;;;;;0.00;0.00;;;;;11.01;76.56;99435.22;5042851;28;45519;-85
2021/12/27 06:07:08;;;;;;;;;0.00;0.00;;;;;11.34;76.56;99486.88;5044366;28;45279;-85
2021/12/27 06:09:33;;;;;;;;;0.00;0.00;;;;;10.94;76.18;99401.47;5045478;28;45563;-83
2021/12/27 06:11:59;;;;;;;;;0.00;0.00;;;;;11.08;76.17;99422.97;5063431;28;44967;-85
2021/12/27 06:14:24;;;;;;;;;0.00;0.00;;;;;10.93;76.70;99397.16;5061381;28;45262;-85
2021/12/27 06:16:49;;;;;;;;;0.00;0.00;;;;;10.92;76.51;99387.63;5065169;28;47052;-86
2021/12/27 06:19:15;;;;;;;;;0.50;0.25;;;;;10.96;76.36;99379.75;5066547;28;44807;-86
2021/12/27 06:21:40;;;;;;;;;2.00;0.00;;;;;10.62;76.40;99321.22;5042477;28;45423;-88
2021/12/27 06:24:06;;;;;;;;;3.00;1.50;;;;;10.54;76.23;99299.66;5041457;28;45351;-84
2021/12/27 06:26:31;;;;;;;;;3.00;2.25;;;;;11.20;76.59;99405.44;5036703;28;45432;-83
2021/12/27 06:28:56;;;;;;;;;3.75;2.00;;;;;10.73;76.59;99323.69;5035176;28;45393;-84
2021/12/27 06:31:22;;;;;;;;;4.00;4.00;;;;;10.67;76.30;99304.69;5031951;28;45416;-85
2021/12/27 06:33:48;;;;;;;;;2.25;2.00;;;;;10.75;76.57;99321.91;5037432;28;45516;-84
2021/12/27 06:36:15;;;;;;;;;4.00;2.75;;;;;10.88;76.39;99321.72;5045325;28;46558;-85
2021/12/27 06:38:40;;;;;;;;;0.50;0.25;;;;;11.13;76.50;99361.28;5046311;28;45359;-84
2021/12/27 06:41:06;;;;;;;;;1.00;1.00;;;;;11.10;76.64;99374.34;5045776;28;45296;-84
2021/12/27 06:43:31;;;;;;;;;1.00;0.00;;;;;11.09;76.27;99353.53;5045182;28;45548;-84
2021/12/27 06:45:58;;;;;;;;;0.50;0.00;;;;;10.28;76.48;99228.00;5055678;28;47647;-84
2021/12/27 06:48:24;;;;;;;;;0.00;0.00;;;;;10.61;76.09;99266.59;5037889;28;45626;-84
2021/12/27 06:50:49;;;;;;;;;0.00;0.00;;;;;10.93;76.15;99334.69;5035351;28;45382;-84
2021/12/27 06:53:16;;;;;;;;;0.00;0.00;;;;;10.59;76.15;99290.03;5038245;28;45564;-84
2021/12/27 06:55:43;;;;;;;;;0.00;0.00;;;;;10.67;76.39;99299.47;5032956;28;45569;-84
2021/12/27 06:58:08;;;;;;;;;0.00;0.00;;;;;10.44;76.16;99259.88;5034712;28;45426;-84
2021/12/27 07:00:33;;;;;;;;;0.00;0.00;;;;;10.54;75.66;99285.78;5038867;28;45316;-84
2021/12/27 07:02:59;;;;;;;;;1.00;0.25;;;;;10.49;76.08;99286.72;5052724;28;45508;-84
2021/12/27 07:05:24;;;;;;;;;0.00;0.00;;;;;10.31;75.95;99253.13;5036430;28;46550;-84
2021/12/27 07:07:49;;;;;;;;;0.50;0.00;;;;;10.43;76.18;99283.28;5035511;28;45396;-83
2021/12/27 07:10:17;;;;;;;;;0.00;0.00;;;;;10.51;76.02;99315.31;5033452;28;45423;-83
2021/12/27 07:12:43;;;;;;;;;0.00;0.00;;;;;10.69;75.72;99331.56;5033751;28;45464;-83
2021/12/27 07:15:09;;;;;;;;;1.75;0.25;;;;;10.59;76.03;99329.06;5042028;28;45571;-84
2021/12/27 07:17:34;;;;;;;;;0.00;0.00;;;;;10.45;76.26;99304.97;5042776;28;45371;-85
2021/12/27 07:20:00;;;;;;;;;0.00;0.00;;;;;10.39;75.92;99290.31;5041948;28;45365;-84
2021/12/27 07:22:25;;;;;;;;;1.00;0.00;;;;;10.77;75.98;99338.38;5035179;28;45626;-84
2021/12/27 07:24:51;;;;;;;;;0.00;0.00;;;;;10.08;75.92;99236.09;5034631;28;45414;-84
2021/12/27 07:27:16;;;;;;;;;0.00;0.00;;;;;10.70;75.99;99333.25;5038632;28;45444;-86
2021/12/27 07:29:42;;;;;;;;;0.00;0.00;;;;;10.72;76.03;99349.72;5037295;28;45425;-84
2021/12/27 07:32:07;;;;;;;;;0.00;0.00;;;;;10.23;75.95;99274.06;5030692;28;45423;-81
2021/12/27 07:34:33;;;;;;;;;0.00;0.00;;;;;10.46;76.01;99320.59;5044749;28;46223;-81
2021/12/27 07:36:59;;;;;;;;;0.00;0.00;;;;;10.65;75.84;99356.75;5037012;28;45554;-78
2021/12/27 07:39:25;;;;;;;;;0.00;0.00;;;;;10.51;76.21;99336.97;5036911;28;45515;-83
2021/12/27 07:41:51;;;;;;;;;0.00;0.00;;;;;10.30;76.11;99308.63;5041118;28;45294;-78
2021/12/27 07:44:17;;;;;;;;;0.00;0.00;;;;;10.43;76.16;99332.72;5032946;28;46509;-81
2021/12/27 07:46:45;;;;;;;;;0.00;0.00;;;;;10.58;75.76;99352.50;5038007;28;45294;-80
2021/12/27 07:49:13;;;;;;;;;0.00;0.00;;;;;10.28;76.22;99311.25;5035212;28;45527;-83
2021/12/27 07:51:38;;;;;;;;;0.00;0.00;;;;;10.23;75.52;99310.47;5037642;28;45447;-81
2021/12/27 07:54:04;;;;;;;;;1.00;0.00;;;;;10.52;76.02;99361.25;5034699;28;46216;-82
2021/12/27 07:56:30;;;;;;;;;0.00;0.00;;;;;10.52;76.05;99362.13;5040733;28;45279;-82
2021/12/27 07:58:56;;;;;;;;;0.00;0.00;;;;;10.36;76.27;99339.75;5038384;28;45470;-82
2021/12/27 08:01:21;;;;;;;;;0.00;0.00;;;;;10.43;76.27;99346.59;5039998;28;45230;-84
2021/12/27 08:03:47;;;;;;;;;0.00;0.00;;;;;10.27;76.01;99320.78;5034986;28;45708;-82
2021/12/27 08:06:12;;;;;;;;;0.25;0.00;;;;;10.07;75.94;99287.22;5032375;28;45326;-83
2021/12/27 08:08:38;;;;;;;;;0.00;0.00;;;;;10.46;76.00;99359.59;5033654;28;45462;-82
2021/12/27 08:11:03;;;;;;;;;0.00;0.00;;;;;10.11;76.04;99299.31;5032769;28;45192;-83
2021/12/27 08:13:29;;;;;;;;;0.00;0.00;;;;;10.31;76.19;99325.94;5032603;28;45430;-85
2021/12/27 08:15:54;;;;;;;;;0.00;0.00;;;;;10.46;75.79;99354.41;5035810;28;45368;-82
2021/12/27 08:18:20;;;;;;;;;0.00;0.00;;;;;10.14;75.81;99304.47;5025189;28;45510;-82
2021/12/27 08:20:46;;;;;;;;;0.00;0.00;;;;;10.47;76.11;99347.44;5041737;28;45529;-81
2021/12/27 08:23:11;;;;;;;;;0.00;0.00;;;;;10.46;76.11;99341.41;5041355;28;45275;-80
2021/12/27 08:25:37;;;;;;;;;0.00;0.00;;;;;10.37;75.86;99326.75;5032759;28;45428;-80
2021/12/27 08:28:03;;;;;;;;;3.00;1.00;;;;;10.37;75.72;99312.88;5036162;28;45300;-80
2021/12/27 08:30:29;;;;;;;;;3.00;0.50;;;;;10.49;75.56;99332.69;5031680;28;45563;-80
2021/12/27 08:32:56;;;;;;;;;0.00;0.00;;;;;10.48;75.82;99331.81;5036861;28;45574;-80
2021/12/27 08:35:22;;;;;;;;;0.00;0.00;;;;;10.38;75.67;99323.25;5039561;28;45454;-82
2021/12/27 08:37:48;;;;;;;;;0.00;0.00;;;;;10.48;75.62;99337.00;5035990;28;45386;-80
2021/12/27 08:40:14;;;;;;;;;0.00;0.00;;;;;10.40;75.57;99323.22;5034145;28;45771;-81
2021/12/27 08:42:40;;;;;;;;;0.00;0.00;;;;;10.30;75.42;99293.88;5037617;28;46399;-81
2021/12/27 08:45:07;;;;;;;;;0.00;0.00;;;;;10.57;75.45;99335.19;5038016;28;45427;-81
2021/12/27 08:47:32;;;;;;;;;0.00;0.00;;;;;9.69;75.33;99188.06;5037360;28;45385;-81
2021/12/27 08:50:00;;;;;;;;;0.00;0.00;;;;;10.51;75.43;99317.94;5032571;28;45462;-82
2021/12/27 08:52:26;;;;;;;;;0.00;0.00;;;;;9.82;75.46;99209.56;5029588;28;46102;-82
2021/12/27 08:54:52;;;;;;;;;0.00;0.00;;;;;10.05;75.41;99246.53;5033765;28;45414;-83
2021/12/27 08:57:17;;;;;;;;;0.00;0.00;;;;;10.60;75.41;99316.94;5032735;28;45343;-82
2021/12/27 08:59:43;;;;;;;;;0.00;0.00;;;;;10.44;75.63;99282.44;5035200;28;45595;-82
2021/12/27 09:02:08;;;;;;;;;0.00;0.00;;;;;10.24;75.65;99239.34;5033914;28;46288;-85
2021/12/27 09:04:33;;;;;;;;;0.00;0.00;;;;;10.13;75.42;99227.34;5038545;28;45524;-82
2021/12/27 09:06:59;;;;;;;;;0.00;0.00;;;;;9.84;75.17;99167.97;5037403;28;45542;-82
2021/12/27 09:09:25;;;;;;;;;0.00;0.00;;;;;10.34;75.13;99256.53;5045450;28;45503;-83
2021/12/27 09:11:51;;;;;;;;;1.00;0.00;;;;;10.21;75.38;99232.47;5045249;28;46051;-84
2021/12/27 09:14:16;;;;;;;;;0.00;0.00;;;;;10.38;75.21;99255.63;5033965;28;45448;-85
2021/12/27 09:16:43;;;;;;;;;0.00;0.00;;;;;10.71;75.26;99322.84;5059590;28;45777;-82
2021/12/27 09:19:10;;;;;;;;;0.00;0.00;;;;;10.26;74.93;99253.16;5039239;28;45413;-84
2021/12/27 09:21:36;;;;;;;;;0.00;0.00;;;;;10.22;75.25;99244.56;5033709;28;46150;-83
2021/12/27 09:24:04;;;;;;;;;0.00;0.00;;;;;10.44;75.30;99283.28;5037173;28;45349;-84
2021/12/27 09:26:30;;;;;;;;;0.00;0.00;;;;;10.41;75.15;99274.69;5041874;28;45484;-83
2021/12/27 09:28:57;;;;;;;;;0.00;0.00;;;;;10.20;75.23;99240.28;5036569;28;45142;-87
2021/12/27 09:31:23;;;;;;;;;0.00;0.00;;;;;10.27;75.09;99241.91;5030499;28;46457;-83
2021/12/27 09:33:49;;;;;;;;;0.00;0.00;;;;;10.13;75.18;99229.97;5034794;28;45992;-83
2021/12/27 09:36:14;;;;;;;;;0.00;0.00;;;;;10.34;75.44;99256.53;5039299;28;45461;-90
2021/12/27 09:38:39;;;;;;;;;1.00;0.00;;;;;9.92;75.45;99193.84;5048276;28;45603;-84
2021/12/27 09:41:06;;;;;;;;;0.50;0.00;;;;;10.20;75.41;99238.50;5055322;28;46115;-85
2021/12/27 09:43:31;;;;;;;;;0.00;0.00;;;;;10.50;75.35;99278.03;5057871;28;45378;-84
2021/12/27 09:45:57;;;;;;;;;1.00;0.00;;;;;10.66;75.58;99296.03;5058002;28;45628;-81
2021/12/27 09:48:22;;;;;;;;;0.00;0.00;;;;;10.18;75.15;99219.50;5041272;28;45486;-82
2021/12/27 09:50:52;;;;;;;;;0.00;0.00;;;;;9.88;75.02;99173.09;5041159;28;45461;-81
2021/12/27 09:53:17;;;;;;;;;0.00;0.00;;;;;10.14;75.16;99216.06;5043403;28;45505;-82
2021/12/27 09:55:43;;;;;;;;;0.00;0.00;;;;;10.07;75.47;99208.34;5032024;28;45335;-82
2021/12/27 09:58:08;;;;;;;;;0.00;0.00;;;;;10.56;75.70;99286.63;5050110;28;45521;-81
2021/12/27 10:00:36;;;;;;;;;0.00;0.00;;;;;10.55;75.63;99282.28;5038236;28;45622;-81
2021/12/27 10:03:02;;;;;;;;;0.00;0.00;;;;;9.93;75.58;99192.97;5035148;28;45371;-80
2021/12/27 10:05:30;;;;;;;;;0.00;0.00;;;;;10.38;75.86;99275.56;5046733;28;45320;-80
2021/12/27 10:07:57;;;;;;;;;0.00;0.00;;;;;9.91;75.67;99206.00;5060327;28;45434;-83
2021/12/27 10:10:23;;;;;;;;;0.00;0.00;;;;;9.92;76.11;99214.66;5047012;28;46016;-84
2021/12/27 10:12:49;;;;;;;;;1.00;0.00;;;;;10.28;75.95;99264.44;5046958;28;45301;-82
2021/12/27 10:15:34;;;;;;;;;0.00;0.00;;;;;10.19;76.38;99238.53;5047079;28;45416;-84
2021/12/27 10:18:11;;;;;;;;;2.00;0.75;;;;;10.08;76.24;99229.16;5058755;28;45531;-82
2021/12/27 10:20:37;;;;;;;;;1.00;0.75;;;;;10.03;76.13;99223.16;5031153;28;46199;-84
2021/12/27 10:23:02;;;;;;;;;0.00;0.00;;;;;10.32;76.33;99266.09;5043401;28;44766;-82
2021/12/27 10:25:29;;;;;;;;;0.00;0.00;;;;;10.07;76.23;99216.16;5054706;28;45665;-82
2021/12/27 10:27:59;;;;;;;;;2.00;0.25;;;;;10.17;76.53;99232.53;5046301;28;45052;-87
2021/12/27 10:30:31;;;;;;;;;0.50;0.00;;;;;10.40;76.74;99279.00;5039295;28;46181;-86
2021/12/27 10:33:10;;;;;;;;;2.00;0.00;;;;;10.46;76.78;99276.34;5047529;28;45385;-87
2021/12/27 10:35:41;;;;;;;;;0.00;0.00;;;;;10.47;76.70;99274.59;5038456;28;44872;-86
2021/12/27 10:38:16;;;;;;;;;0.25;0.00;;;;;10.46;76.71;99278.97;5056253;28;44916;-85
2021/12/27 10:40:56;;;;;;;;;0.00;0.00;;;;;10.39;77.21;99262.53;5045775;28;46346;-83
2021/12/27 10:43:50;;;;;;;;;0.00;0.00;;;;;10.44;76.98;99267.66;5046272;28;45302;-89
2021/12/27 10:46:22;;;;;;;;;1.00;1.00;;;;;10.44;76.76;99270.28;5051289;28;45455;-85
2021/12/27 10:49:27;;;;;;;;;0.00;0.00;;;;;9.88;77.04;99162.72;5050366;28;45507;-88
2021/12/27 10:52:08;;;;;;;;;0.00;0.00;;;;;10.54;77.19;99276.25;5052863;28;45454;-82
2021/12/27 10:55:12;;;;;;;;;0.00;0.00;;;;;10.53;76.49;99266.72;5042741;28;45508;-90
2021/12/27 10:57:38;;;;;;;;;0.00;0.00;;;;;9.58;76.99;99112.84;5076243;28;45470;-81
2021/12/27 11:00:21;;;;;;;;;1.75;0.50;;;;;10.23;76.91;99217.69;5048059;28;45363;-83
2021/12/27 11:02:47;;;;;;;;;0.75;0.75;;;;;10.58;77.20;99277.91;5056443;28;46836;-81
2021/12/27 11:05:15;;;;;;;;;0.00;0.00;;;;;10.40;77.16;99245.19;5042763;28;45243;-80
2021/12/27 11:07:42;;;;;;;;;0.00;0.00;;;;;10.11;76.51;99202.25;5048564;28;45421;-84
2021/12/27 11:10:08;;;;;;;;;2.00;0.00;;;;;10.48;76.60;99264.16;5049532;28;45455;-82
2021/12/27 11:12:33;;;;;;;;;0.00;0.00;;;;;10.37;76.65;99240.91;5047931;28;45689;-79
2021/12/27 11:14:59;;;;;;;;;0.00;0.00;;;;;10.10;76.76;99195.31;5044899;28;45476;-83
2021/12/27 11:17:24;;;;;;;;;0.00;0.00;;;;;10.64;76.44;99272.63;5046076;28;45471;-83
2021/12/27 11:19:50;;;;;;;;;0.00;0.00;;;;;10.36;76.88;99239.16;5042472;28;45245;-84
2021/12/27 11:22:16;;;;;;;;;0.00;0.00;;;;;10.17;76.68;99186.56;5036363;28;46188;-80
2021/12/27 11:24:43;;;;;;;;;0.00;0.00;;;;;10.27;76.57;99197.69;5036770;28;45631;-80
2021/12/27 11:27:13;;;;;;;;;0.00;0.00;;;;;10.73;76.58;99279.44;5037200;28;45506;-80
2021/12/27 11:29:39;;;;;;;;;0.00;0.00;;;;;10.67;76.46;99263.03;5044185;28;45606;-80
2021/12/27 11:32:16;;;;;;;;;0.00;0.00;;;;;10.69;76.54;99262.13;5033959;28;46314;-81
2021/12/27 11:34:56;;;;;;;;;0.00;0.00;;;;;10.70;76.35;99260.41;5036847;28;45347;-81
2021/12/27 11:37:43;;;;;;;;;0.75;0.00;;;;;10.93;76.38;99283.44;5034124;28;46655;-85